sensor_id;sensor_type;location;lat;lon;timestamp;P1;durP1;ratioP1;P2;durP2;ratioP2
12861;SDS011;6499;66.348;14.134;2023-03-15T00:00:39;0.63;;;0.40;;
12861;SDS011;6499;66.348;14.134;2023-03-15T00:03:07;0.30;;;0.30;;
12861;SDS011;6499;66.348;14.134;2023-03-15T00:05:33;0.33;;;0.33;;
12861;SDS011;6499;66.348;14.134;2023-03-15T00:08:00;0.80;;;0.50;;
12861;SDS011;6499;66.348;14.134;2023-03-15T00:10:27;0.57;;;0.30;;
12861;SDS011;6499;66.348;14.134;2023-03-15T00:12:54;0.53;;;0.50;;
12861;SDS011;6499;66.348;14.134;2023-03-15T00:15:21;0.60;;;0.50;;
12861;SDS011;6499;66.348;14.134;2023-03-15T00:17:47;0.40;;;0.40;;
12861;SDS011;6499;66.348;14.134;2023-03-15T00:20:14;0.50;;;0.50;;
12861;SDS011;6499;66.348;14.134;2023-03-15T00:22:41;1.03;;;0.50;;
12861;SDS011;6499;66.348;14.134;2023-03-15T00:25:08;0.50;;;0.40;;
12861;SDS011;6499;66.348;14.134;2023-03-15T00:27:35;0.77;;;0.60;;
12861;SDS011;6499;66.348;14.134;2023-03-15T00:30:03;0.73;;;0.50;;
12861;SDS011;6499;66.348;14.134;2023-03-15T00:32:29;0.70;;;0.60;;
12861;SDS011;6499;66.348;14.134;2023-03-15T00:34:56;1.53;;;0.90;;
12861;SDS011;6499;66.348;14.134;2023-03-15T00:37:23;4.27;;;2.23;;
12861;SDS011;6499;66.348;14.134;2023-03-15T00:39:50;1.90;;;1.33;;
12861;SDS011;6499;66.348;14.134;2023-03-15T00:42:19;1.43;;;1.10;;
12861;SDS011;6499;66.348;14.134;2023-03-15T00:44:51;2.03;;;1.17;;
12861;SDS011;6499;66.348;14.134;2023-03-15T00:47:19;1.70;;;1.00;;
12861;SDS011;6499;66.348;14.134;2023-03-15T00:49:45;1.60;;;1.30;;
12861;SDS011;6499;66.348;14.134;2023-03-15T00:52:12;2.17;;;0.90;;
12861;SDS011;6499;66.348;14.134;2023-03-15T00:54:38;1.07;;;0.80;;
12861;SDS011;6499;66.348;14.134;2023-03-15T00:57:05;0.60;;;0.57;;
12861;SDS011;6499;66.348;14.134;2023-03-15T00:59:32;0.63;;;0.53;;
12861;SDS011;6499;66.348;14.134;2023-03-15T01:01:59;0.50;;;0.50;;
12861;SDS011;6499;66.348;14.134;2023-03-15T01:04:27;0.83;;;0.60;;
12861;SDS011;6499;66.348;14.134;2023-03-15T01:06:53;0.97;;;0.60;;
12861;SDS011;6499;66.348;14.134;2023-03-15T01:09:20;0.77;;;0.40;;
12861;SDS011;6499;66.348;14.134;2023-03-15T01:11:46;0.77;;;0.50;;
12861;SDS011;6499;66.348;14.134;2023-03-15T01:14:13;1.30;;;0.50;;
12861;SDS011;6499;66.348;14.134;2023-03-15T01:16:39;0.40;;;0.40;;
12861;SDS011;6499;66.348;14.134;2023-03-15T01:19:06;1.40;;;0.50;;
12861;SDS011;6499;66.348;14.134;2023-03-15T01:21:34;0.40;;;0.40;;
12861;SDS011;6499;66.348;14.134;2023-03-15T01:24:00;0.77;;;0.30;;
12861;SDS011;6499;66.348;14.134;2023-03-15T01:26:26;0.40;;;0.40;;
12861;SDS011;6499;66.348;14.134;2023-03-15T01:28:53;1.47;;;0.50;;
12861;SDS011;6499;66.348;14.134;2023-03-15T01:33:49;1.07;;;0.50;;
12861;SDS011;6499;66.348;14.134;2023-03-15T01:36:16;0.93;;;0.53;;
12861;SDS011;6499;66.348;14.134;2023-03-15T01:38:44;0.90;;;0.40;;
12861;SDS011;6499;66.348;14.134;2023-03-15T01:41:11;0.87;;;0.40;;
12861;SDS011;6499;66.348;14.134;2023-03-15T01:43:38;1.50;;;0.50;;
12861;SDS011;6499;66.348;14.134;2023-03-15T01:46:16;1.43;;;0.40;;
12861;SDS011;6499;66.348;14.134;2023-03-15T01:48:47;0.63;;;0.50;;
12861;SDS011;6499;66.348;14.134;2023-03-15T01:51:15;1.07;;;0.70;;
12861;SDS011;6499;66.348;14.134;2023-03-15T01:53:45;1.27;;;0.40;;
12861;SDS011;6499;66.348;14.134;2023-03-15T01:56:12;1.10;;;0.50;;
12861;SDS011;6499;66.348;14.134;2023-03-15T01:58:39;0.80;;;0.57;;
12861;SDS011;6499;66.348;14.134;2023-03-15T02:01:07;1.03;;;0.47;;
12861;SDS011;6499;66.348;14.134;2023-03-15T02:03:34;0.40;;;0.40;;
12861;SDS011;6499;66.348;14.134;2023-03-15T02:06:02;1.70;;;0.60;;
12861;SDS011;6499;66.348;14.134;2023-03-15T02:08:31;1.07;;;0.60;;
12861;SDS011;6499;66.348;14.134;2023-03-15T02:11:00;0.53;;;0.43;;
12861;SDS011;6499;66.348;14.134;2023-03-15T02:13:28;0.67;;;0.50;;
12861;SDS011;6499;66.348;14.134;2023-03-15T02:15:55;0.20;;;0.20;;
12861;SDS011;6499;66.348;14.134;2023-03-15T02:18:22;0.60;;;0.47;;
12861;SDS011;6499;66.348;14.134;2023-03-15T02:20:50;0.40;;;0.40;;
12861;SDS011;6499;66.348;14.134;2023-03-15T02:23:21;0.40;;;0.40;;
12861;SDS011;6499;66.348;14.134;2023-03-15T02:25:50;0.50;;;0.50;;
12861;SDS011;6499;66.348;14.134;2023-03-15T02:28:19;1.70;;;0.40;;
12861;SDS011;6499;66.348;14.134;2023-03-15T02:30:46;0.83;;;0.50;;
12861;SDS011;6499;66.348;14.134;2023-03-15T02:33:14;2.67;;;0.57;;
12861;SDS011;6499;66.348;14.134;2023-03-15T02:35:42;0.40;;;0.40;;
12861;SDS011;6499;66.348;14.134;2023-03-15T02:38:09;0.50;;;0.47;;
12861;SDS011;6499;66.348;14.134;2023-03-15T02:40:35;1.10;;;0.60;;
12861;SDS011;6499;66.348;14.134;2023-03-15T02:43:04;0.80;;;0.50;;
12861;SDS011;6499;66.348;14.134;2023-03-15T02:45:33;1.00;;;0.60;;
12861;SDS011;6499;66.348;14.134;2023-03-15T02:48:00;0.50;;;0.40;;
12861;SDS011;6499;66.348;14.134;2023-03-15T02:50:27;0.50;;;0.40;;
12861;SDS011;6499;66.348;14.134;2023-03-15T02:52:54;0.90;;;0.50;;
12861;SDS011;6499;66.348;14.134;2023-03-15T02:55:20;1.17;;;0.40;;
12861;SDS011;6499;66.348;14.134;2023-03-15T02:57:47;0.50;;;0.47;;
12861;SDS011;6499;66.348;14.134;2023-03-15T03:00:13;0.47;;;0.40;;
12861;SDS011;6499;66.348;14.134;2023-03-15T03:02:42;0.83;;;0.50;;
12861;SDS011;6499;66.348;14.134;2023-03-15T03:05:09;0.30;;;0.30;;
12861;SDS011;6499;66.348;14.134;2023-03-15T03:07:36;1.03;;;0.50;;
12861;SDS011;6499;66.348;14.134;2023-03-15T03:10:03;0.43;;;0.37;;
12861;SDS011;6499;66.348;14.134;2023-03-15T03:12:29;0.37;;;0.37;;
12861;SDS011;6499;66.348;14.134;2023-03-15T03:14:56;0.30;;;0.30;;
12861;SDS011;6499;66.348;14.134;2023-03-15T03:17:22;0.63;;;0.50;;
12861;SDS011;6499;66.348;14.134;2023-03-15T03:19:51;0.70;;;0.53;;
12861;SDS011;6499;66.348;14.134;2023-03-15T03:22:17;1.27;;;0.40;;
12861;SDS011;6499;66.348;14.134;2023-03-15T03:24:44;0.30;;;0.30;;
12861;SDS011;6499;66.348;14.134;2023-03-15T03:27:17;0.40;;;0.40;;
12861;SDS011;6499;66.348;14.134;2023-03-15T03:29:43;1.03;;;0.60;;
12861;SDS011;6499;66.348;14.134;2023-03-15T03:32:10;0.80;;;0.40;;
12861;SDS011;6499;66.348;14.134;2023-03-15T03:34:36;0.40;;;0.40;;
12861;SDS011;6499;66.348;14.134;2023-03-15T03:37:04;0.40;;;0.37;;
12861;SDS011;6499;66.348;14.134;2023-03-15T03:39:31;0.67;;;0.47;;
12861;SDS011;6499;66.348;14.134;2023-03-15T03:41:57;0.40;;;0.40;;
12861;SDS011;6499;66.348;14.134;2023-03-15T03:44:24;0.60;;;0.53;;
12861;SDS011;6499;66.348;14.134;2023-03-15T03:46:50;0.90;;;0.40;;
12861;SDS011;6499;66.348;14.134;2023-03-15T03:49:16;1.07;;;0.43;;
12861;SDS011;6499;66.348;14.134;2023-03-15T03:51:43;0.40;;;0.40;;
12861;SDS011;6499;66.348;14.134;2023-03-15T03:54:11;0.60;;;0.50;;
12861;SDS011;6499;66.348;14.134;2023-03-15T03:56:37;1.13;;;0.60;;
12861;SDS011;6499;66.348;14.134;2023-03-15T03:59:04;1.03;;;0.70;;
12861;SDS011;6499;66.348;14.134;2023-03-15T04:01:30;1.07;;;0.60;;
12861;SDS011;6499;66.348;14.134;2023-03-15T04:03:57;1.00;;;0.53;;
12861;SDS011;6499;66.348;14.134;2023-03-15T04:06:24;0.60;;;0.50;;
12861;SDS011;6499;66.348;14.134;2023-03-15T04:08:50;1.03;;;0.30;;
12861;SDS011;6499;66.348;14.134;2023-03-15T04:11:18;0.50;;;0.50;;
12861;SDS011;6499;66.348;14.134;2023-03-15T04:13:45;1.70;;;0.50;;
12861;SDS011;6499;66.348;14.134;2023-03-15T04:16:11;0.83;;;0.40;;
12861;SDS011;6499;66.348;14.134;2023-03-15T04:18:38;0.40;;;0.40;;
12861;SDS011;6499;66.348;14.134;2023-03-15T04:21:05;0.40;;;0.40;;
12861;SDS011;6499;66.348;14.134;2023-03-15T04:23:34;0.77;;;0.53;;
12861;SDS011;6499;66.348;14.134;2023-03-15T04:26:01;0.70;;;0.43;;
12861;SDS011;6499;66.348;14.134;2023-03-15T04:28:29;0.40;;;0.40;;
12861;SDS011;6499;66.348;14.134;2023-03-15T04:30:55;0.40;;;0.40;;
12861;SDS011;6499;66.348;14.134;2023-03-15T04:33:22;0.80;;;0.60;;
12861;SDS011;6499;66.348;14.134;2023-03-15T04:35:49;1.73;;;1.60;;
12861;SDS011;6499;66.348;14.134;2023-03-15T04:38:16;1.67;;;1.30;;
12861;SDS011;6499;66.348;14.134;2023-03-15T04:40:43;2.30;;;1.53;;
12861;SDS011;6499;66.348;14.134;2023-03-15T04:43:09;1.30;;;0.87;;
12861;SDS011;6499;66.348;14.134;2023-03-15T04:45:37;1.00;;;0.80;;
12861;SDS011;6499;66.348;14.134;2023-03-15T04:48:04;3.17;;;1.33;;
12861;SDS011;6499;66.348;14.134;2023-03-15T04:50:30;1.53;;;0.87;;
12861;SDS011;6499;66.348;14.134;2023-03-15T04:52:57;1.77;;;1.00;;
12861;SDS011;6499;66.348;14.134;2023-03-15T04:55:23;0.90;;;0.80;;
12861;SDS011;6499;66.348;14.134;2023-03-15T04:57:50;1.17;;;0.80;;
12861;SDS011;6499;66.348;14.134;2023-03-15T05:00:17;1.17;;;0.80;;
12861;SDS011;6499;66.348;14.134;2023-03-15T05:02:45;1.07;;;0.60;;
12861;SDS011;6499;66.348;14.134;2023-03-15T05:05:18;1.10;;;0.87;;
12861;SDS011;6499;66.348;14.134;2023-03-15T05:07:45;1.40;;;0.90;;
12861;SDS011;6499;66.348;14.134;2023-03-15T05:10:12;2.33;;;1.00;;
12861;SDS011;6499;66.348;14.134;2023-03-15T05:12:38;3.23;;;1.40;;
12861;SDS011;6499;66.348;14.134;2023-03-15T05:15:05;2.43;;;1.07;;
12861;SDS011;6499;66.348;14.134;2023-03-15T05:17:32;2.13;;;1.10;;
12861;SDS011;6499;66.348;14.134;2023-03-15T05:20:00;1.87;;;1.07;;
12861;SDS011;6499;66.348;14.134;2023-03-15T05:22:31;1.83;;;1.00;;
12861;SDS011;6499;66.348;14.134;2023-03-15T05:24:57;1.47;;;0.80;;
12861;SDS011;6499;66.348;14.134;2023-03-15T05:27:24;1.73;;;0.90;;
12861;SDS011;6499;66.348;14.134;2023-03-15T05:29:50;2.13;;;1.27;;
12861;SDS011;6499;66.348;14.134;2023-03-15T05:32:17;1.60;;;1.00;;
12861;SDS011;6499;66.348;14.134;2023-03-15T05:34:43;2.67;;;1.27;;
12861;SDS011;6499;66.348;14.134;2023-03-15T05:37:11;3.50;;;1.50;;
12861;SDS011;6499;66.348;14.134;2023-03-15T05:39:37;2.70;;;1.60;;
12861;SDS011;6499;66.348;14.134;2023-03-15T05:42:06;1.93;;;1.30;;
12861;SDS011;6499;66.348;14.134;2023-03-15T05:44:33;2.60;;;1.23;;
12861;SDS011;6499;66.348;14.134;2023-03-15T05:46:59;2.90;;;1.30;;
12861;SDS011;6499;66.348;14.134;2023-03-15T05:49:25;1.40;;;1.13;;
12861;SDS011;6499;66.348;14.134;2023-03-15T05:51:52;1.83;;;1.20;;
12861;SDS011;6499;66.348;14.134;2023-03-15T05:54:20;2.83;;;1.30;;
12861;SDS011;6499;66.348;14.134;2023-03-15T05:56:46;2.57;;;1.30;;
12861;SDS011;6499;66.348;14.134;2023-03-15T05:59:13;4.30;;;2.47;;
12861;SDS011;6499;66.348;14.134;2023-03-15T06:01:39;2.60;;;1.60;;
12861;SDS011;6499;66.348;14.134;2023-03-15T06:04:06;2.50;;;1.50;;
12861;SDS011;6499;66.348;14.134;2023-03-15T06:06:32;7.20;;;5.67;;
12861;SDS011;6499;66.348;14.134;2023-03-15T06:08:58;6.60;;;4.63;;
12861;SDS011;6499;66.348;14.134;2023-03-15T06:11:26;3.80;;;2.93;;
12861;SDS011;6499;66.348;14.134;2023-03-15T06:13:53;5.43;;;2.53;;
12861;SDS011;6499;66.348;14.134;2023-03-15T06:16:19;6.93;;;3.70;;
12861;SDS011;6499;66.348;14.134;2023-03-15T06:18:46;26.80;;;16.03;;
12861;SDS011;6499;66.348;14.134;2023-03-15T06:21:12;10.93;;;6.47;;
12861;SDS011;6499;66.348;14.134;2023-03-15T06:23:39;4.60;;;3.17;;
12861;SDS011;6499;66.348;14.134;2023-03-15T06:26:05;6.50;;;3.47;;
12861;SDS011;6499;66.348;14.134;2023-03-15T06:28:33;5.30;;;2.83;;
12861;SDS011;6499;66.348;14.134;2023-03-15T06:31:03;4.03;;;2.00;;
12861;SDS011;6499;66.348;14.134;2023-03-15T06:33:29;3.47;;;2.13;;
12861;SDS011;6499;66.348;14.134;2023-03-15T06:35:56;2.60;;;2.30;;
12861;SDS011;6499;66.348;14.134;2023-03-15T06:38:22;2.50;;;2.00;;
12861;SDS011;6499;66.348;14.134;2023-03-15T06:40:48;2.10;;;1.43;;
12861;SDS011;6499;66.348;14.134;2023-03-15T06:43:15;1.87;;;1.03;;
12861;SDS011;6499;66.348;14.134;2023-03-15T06:45:45;1.67;;;1.00;;
12861;SDS011;6499;66.348;14.134;2023-03-15T06:48:11;3.03;;;1.00;;
12861;SDS011;6499;66.348;14.134;2023-03-15T06:50:38;2.50;;;1.10;;
12861;SDS011;6499;66.348;14.134;2023-03-15T06:53:04;2.00;;;1.10;;
12861;SDS011;6499;66.348;14.134;2023-03-15T06:55:33;2.13;;;1.00;;
12861;SDS011;6499;66.348;14.134;2023-03-15T06:58:00;1.80;;;1.10;;
12861;SDS011;6499;66.348;14.134;2023-03-15T07:00:26;8.40;;;1.53;;
12861;SDS011;6499;66.348;14.134;2023-03-15T07:02:54;3.67;;;1.70;;
12861;SDS011;6499;66.348;14.134;2023-03-15T07:05:21;3.30;;;1.80;;
12861;SDS011;6499;66.348;14.134;2023-03-15T07:07:47;3.10;;;1.33;;
12861;SDS011;6499;66.348;14.134;2023-03-15T07:10:14;3.20;;;1.27;;
12861;SDS011;6499;66.348;14.134;2023-03-15T07:12:40;7.43;;;3.50;;
12861;SDS011;6499;66.348;14.134;2023-03-15T07:15:07;7.23;;;4.70;;
12861;SDS011;6499;66.348;14.134;2023-03-15T07:17:34;7.13;;;4.30;;
12861;SDS011;6499;66.348;14.134;2023-03-15T07:20:01;5.93;;;3.57;;
12861;SDS011;6499;66.348;14.134;2023-03-15T07:22:30;9.50;;;3.20;;
12861;SDS011;6499;66.348;14.134;2023-03-15T07:24:56;5.90;;;2.77;;
12861;SDS011;6499;66.348;14.134;2023-03-15T07:27:23;7.00;;;2.67;;
12861;SDS011;6499;66.348;14.134;2023-03-15T07:29:49;16.77;;;7.83;;
12861;SDS011;6499;66.348;14.134;2023-03-15T07:32:15;7.60;;;2.90;;
12861;SDS011;6499;66.348;14.134;2023-03-15T07:34:42;3.53;;;2.47;;
12861;SDS011;6499;66.348;14.134;2023-03-15T07:37:10;5.80;;;2.80;;
12861;SDS011;6499;66.348;14.134;2023-03-15T07:39:36;6.67;;;2.83;;
12861;SDS011;6499;66.348;14.134;2023-03-15T07:42:03;6.30;;;2.80;;
12861;SDS011;6499;66.348;14.134;2023-03-15T07:44:31;5.70;;;2.97;;
12861;SDS011;6499;66.348;14.134;2023-03-15T07:46:57;8.80;;;4.47;;
12861;SDS011;6499;66.348;14.134;2023-03-15T07:49:24;6.30;;;2.93;;
12861;SDS011;6499;66.348;14.134;2023-03-15T07:51:50;10.07;;;6.00;;
12861;SDS011;6499;66.348;14.134;2023-03-15T07:54:18;11.60;;;5.77;;
12861;SDS011;6499;66.348;14.134;2023-03-15T07:56:45;6.97;;;4.10;;
12861;SDS011;6499;66.348;14.134;2023-03-15T07:59:11;7.20;;;3.47;;
12861;SDS011;6499;66.348;14.134;2023-03-15T08:01:37;7.27;;;3.63;;
12861;SDS011;6499;66.348;14.134;2023-03-15T08:04:04;6.50;;;3.50;;
12861;SDS011;6499;66.348;14.134;2023-03-15T08:06:31;6.43;;;2.93;;
12861;SDS011;6499;66.348;14.134;2023-03-15T08:08:57;5.77;;;3.03;;
12861;SDS011;6499;66.348;14.134;2023-03-15T08:11:27;7.63;;;3.40;;
12861;SDS011;6499;66.348;14.134;2023-03-15T08:13:53;7.67;;;4.20;;
12861;SDS011;6499;66.348;14.134;2023-03-15T08:16:19;7.73;;;4.03;;
12861;SDS011;6499;66.348;14.134;2023-03-15T08:18:46;7.60;;;3.40;;
12861;SDS011;6499;66.348;14.134;2023-03-15T08:21:12;5.70;;;3.00;;
12861;SDS011;6499;66.348;14.134;2023-03-15T08:23:39;5.97;;;3.83;;
12861;SDS011;6499;66.348;14.134;2023-03-15T08:26:05;7.87;;;3.50;;
12861;SDS011;6499;66.348;14.134;2023-03-15T08:28:33;8.27;;;3.00;;
12861;SDS011;6499;66.348;14.134;2023-03-15T08:30:59;5.40;;;3.43;;
12861;SDS011;6499;66.348;14.134;2023-03-15T08:33:26;6.80;;;2.57;;
12861;SDS011;6499;66.348;14.134;2023-03-15T08:35:54;6.33;;;2.80;;
12861;SDS011;6499;66.348;14.134;2023-03-15T08:38:21;6.83;;;2.93;;
12861;SDS011;6499;66.348;14.134;2023-03-15T08:40:47;8.93;;;3.60;;
12861;SDS011;6499;66.348;14.134;2023-03-15T08:43:14;7.47;;;3.97;;
12861;SDS011;6499;66.348;14.134;2023-03-15T08:45:41;7.43;;;3.30;;
12861;SDS011;6499;66.348;14.134;2023-03-15T08:48:08;8.57;;;3.40;;
12861;SDS011;6499;66.348;14.134;2023-03-15T08:50:39;8.17;;;3.27;;
12861;SDS011;6499;66.348;14.134;2023-03-15T08:53:06;7.83;;;3.37;;
12861;SDS011;6499;66.348;14.134;2023-03-15T08:55:33;5.27;;;3.07;;
12861;SDS011;6499;66.348;14.134;2023-03-15T08:57:59;6.10;;;3.50;;
12861;SDS011;6499;66.348;14.134;2023-03-15T09:00:26;7.37;;;3.20;;
12861;SDS011;6499;66.348;14.134;2023-03-15T09:02:54;12.37;;;4.47;;
12861;SDS011;6499;66.348;14.134;2023-03-15T09:05:21;6.47;;;4.07;;
12861;SDS011;6499;66.348;14.134;2023-03-15T09:07:50;5.77;;;3.07;;
12861;SDS011;6499;66.348;14.134;2023-03-15T09:10:17;8.27;;;3.37;;
12861;SDS011;6499;66.348;14.134;2023-03-15T09:12:45;9.83;;;3.47;;
12861;SDS011;6499;66.348;14.134;2023-03-15T09:15:12;11.00;;;3.70;;
12861;SDS011;6499;66.348;14.134;2023-03-15T09:17:38;7.80;;;4.03;;
12861;SDS011;6499;66.348;14.134;2023-03-15T09:20:07;9.30;;;4.80;;
12861;SDS011;6499;66.348;14.134;2023-03-15T09:22:38;6.53;;;4.20;;
12861;SDS011;6499;66.348;14.134;2023-03-15T09:25:05;8.07;;;4.37;;
12861;SDS011;6499;66.348;14.134;2023-03-15T09:27:32;9.93;;;4.00;;
12861;SDS011;6499;66.348;14.134;2023-03-15T09:29:58;6.90;;;3.13;;
12861;SDS011;6499;66.348;14.134;2023-03-15T09:32:25;9.20;;;4.80;;
12861;SDS011;6499;66.348;14.134;2023-03-15T09:34:54;6.57;;;3.03;;
12861;SDS011;6499;66.348;14.134;2023-03-15T09:37:22;9.63;;;3.73;;
12861;SDS011;6499;66.348;14.134;2023-03-15T09:39:50;8.70;;;3.80;;
12861;SDS011;6499;66.348;14.134;2023-03-15T09:42:17;7.67;;;3.80;;
12861;SDS011;6499;66.348;14.134;2023-03-15T09:44:49;6.27;;;3.30;;
12861;SDS011;6499;66.348;14.134;2023-03-15T09:47:21;6.17;;;2.57;;
12861;SDS011;6499;66.348;14.134;2023-03-15T09:49:51;9.00;;;3.27;;
12861;SDS011;6499;66.348;14.134;2023-03-15T09:52:27;7.97;;;3.03;;
12861;SDS011;6499;66.348;14.134;2023-03-15T09:54:57;8.90;;;3.37;;
12861;SDS011;6499;66.348;14.134;2023-03-15T09:57:27;6.70;;;3.07;;
12861;SDS011;6499;66.348;14.134;2023-03-15T09:59:55;6.87;;;3.13;;
12861;SDS011;6499;66.348;14.134;2023-03-15T10:02:24;6.57;;;3.47;;
12861;SDS011;6499;66.348;14.134;2023-03-15T10:04:53;5.93;;;3.27;;
12861;SDS011;6499;66.348;14.134;2023-03-15T10:07:21;8.47;;;3.37;;
12861;SDS011;6499;66.348;14.134;2023-03-15T10:09:49;8.00;;;3.50;;
12861;SDS011;6499;66.348;14.134;2023-03-15T10:12:16;7.67;;;3.57;;
12861;SDS011;6499;66.348;14.134;2023-03-15T10:14:58;9.47;;;4.10;;
12861;SDS011;6499;66.348;14.134;2023-03-15T10:17:28;9.23;;;3.10;;
12861;SDS011;6499;66.348;14.134;2023-03-15T10:19:59;10.57;;;3.77;;
12861;SDS011;6499;66.348;14.134;2023-03-15T10:22:27;8.03;;;3.20;;
12861;SDS011;6499;66.348;14.134;2023-03-15T10:24:58;9.73;;;3.83;;
12861;SDS011;6499;66.348;14.134;2023-03-15T10:27:27;8.33;;;4.03;;
12861;SDS011;6499;66.348;14.134;2023-03-15T10:29:55;8.80;;;4.17;;
12861;SDS011;6499;66.348;14.134;2023-03-15T10:32:22;6.90;;;3.30;;
12861;SDS011;6499;66.348;14.134;2023-03-15T10:34:51;10.27;;;4.07;;
12861;SDS011;6499;66.348;14.134;2023-03-15T10:37:18;7.60;;;2.97;;
12861;SDS011;6499;66.348;14.134;2023-03-15T10:39:48;11.43;;;4.17;;
12861;SDS011;6499;66.348;14.134;2023-03-15T10:42:26;8.00;;;3.87;;
12861;SDS011;6499;66.348;14.134;2023-03-15T10:44:53;6.40;;;3.47;;
12861;SDS011;6499;66.348;14.134;2023-03-15T10:47:20;8.30;;;3.10;;
12861;SDS011;6499;66.348;14.134;2023-03-15T10:49:47;8.50;;;3.17;;
12861;SDS011;6499;66.348;14.134;2023-03-15T10:52:27;8.10;;;3.83;;
12861;SDS011;6499;66.348;14.134;2023-03-15T10:54:53;9.17;;;3.93;;
12861;SDS011;6499;66.348;14.134;2023-03-15T10:57:26;8.47;;;3.43;;
12861;SDS011;6499;66.348;14.134;2023-03-15T10:59:56;6.73;;;3.53;;
12861;SDS011;6499;66.348;14.134;2023-03-15T11:02:23;6.87;;;3.60;;
12861;SDS011;6499;66.348;14.134;2023-03-15T11:04:58;9.47;;;3.33;;
12861;SDS011;6499;66.348;14.134;2023-03-15T11:07:26;6.10;;;3.03;;
12861;SDS011;6499;66.348;14.134;2023-03-15T11:09:53;7.07;;;3.17;;
12861;SDS011;6499;66.348;14.134;2023-03-15T11:12:20;8.50;;;3.57;;
12861;SDS011;6499;66.348;14.134;2023-03-15T11:14:49;8.40;;;3.90;;
12861;SDS011;6499;66.348;14.134;2023-03-15T11:17:18;11.60;;;4.10;;
12861;SDS011;6499;66.348;14.134;2023-03-15T11:19:45;10.93;;;4.07;;
12861;SDS011;6499;66.348;14.134;2023-03-15T11:22:13;9.73;;;4.00;;
12861;SDS011;6499;66.348;14.134;2023-03-15T11:24:39;7.10;;;3.57;;
12861;SDS011;6499;66.348;14.134;2023-03-15T11:27:08;7.67;;;4.03;;
12861;SDS011;6499;66.348;14.134;2023-03-15T11:29:36;10.70;;;4.63;;
12861;SDS011;6499;66.348;14.134;2023-03-15T11:32:09;7.03;;;3.50;;
12861;SDS011;6499;66.348;14.134;2023-03-15T11:34:39;7.23;;;3.87;;
12861;SDS011;6499;66.348;14.134;2023-03-15T11:37:10;8.97;;;3.77;;
12861;SDS011;6499;66.348;14.134;2023-03-15T11:39:38;10.47;;;4.07;;
12861;SDS011;6499;66.348;14.134;2023-03-15T11:42:10;11.03;;;3.80;;
12861;SDS011;6499;66.348;14.134;2023-03-15T11:44:39;7.60;;;3.50;;
12861;SDS011;6499;66.348;14.134;2023-03-15T11:47:08;9.67;;;4.37;;
12861;SDS011;6499;66.348;14.134;2023-03-15T11:49:36;8.43;;;4.20;;
12861;SDS011;6499;66.348;14.134;2023-03-15T11:52:07;6.70;;;3.60;;
12861;SDS011;6499;66.348;14.134;2023-03-15T11:54:34;8.07;;;3.87;;
12861;SDS011;6499;66.348;14.134;2023-03-15T11:57:01;6.13;;;3.27;;
12861;SDS011;6499;66.348;14.134;2023-03-15T11:59:28;7.37;;;3.50;;
12861;SDS011;6499;66.348;14.134;2023-03-15T12:01:57;7.03;;;3.10;;
12861;SDS011;6499;66.348;14.134;2023-03-15T12:12:45;6.03;;;2.77;;
12861;SDS011;6499;66.348;14.134;2023-03-15T12:17:56;5.80;;;3.03;;
12861;SDS011;6499;66.348;14.134;2023-03-15T12:20:26;5.33;;;2.80;;
12861;SDS011;6499;66.348;14.134;2023-03-15T12:23:04;6.07;;;2.77;;
12861;SDS011;6499;66.348;14.134;2023-03-15T12:25:33;7.83;;;2.47;;
12861;SDS011;6499;66.348;14.134;2023-03-15T12:28:03;5.90;;;2.30;;
12861;SDS011;6499;66.348;14.134;2023-03-15T12:30:31;3.90;;;2.00;;
12861;SDS011;6499;66.348;14.134;2023-03-15T12:32:58;3.37;;;1.80;;
12861;SDS011;6499;66.348;14.134;2023-03-15T12:35:28;3.03;;;1.90;;
12861;SDS011;6499;66.348;14.134;2023-03-15T12:37:55;3.97;;;1.90;;
12861;SDS011;6499;66.348;14.134;2023-03-15T12:40:28;4.70;;;1.97;;
12861;SDS011;6499;66.348;14.134;2023-03-15T12:43:00;4.93;;;2.10;;
12861;SDS011;6499;66.348;14.134;2023-03-15T12:45:35;6.00;;;1.97;;
12861;SDS011;6499;66.348;14.134;2023-03-15T12:48:17;5.13;;;2.40;;
12861;SDS011;6499;66.348;14.134;2023-03-15T12:50:48;3.60;;;1.57;;
12861;SDS011;6499;66.348;14.134;2023-03-15T12:53:18;3.37;;;1.80;;
12861;SDS011;6499;66.348;14.134;2023-03-15T12:55:46;4.50;;;1.93;;
12861;SDS011;6499;66.348;14.134;2023-03-15T12:58:13;5.97;;;1.70;;
12861;SDS011;6499;66.348;14.134;2023-03-15T13:00:42;3.50;;;2.00;;
12861;SDS011;6499;66.348;14.134;2023-03-15T13:03:10;3.23;;;1.67;;
12861;SDS011;6499;66.348;14.134;2023-03-15T13:05:43;2.33;;;1.60;;
12861;SDS011;6499;66.348;14.134;2023-03-15T13:08:17;3.50;;;1.90;;
12861;SDS011;6499;66.348;14.134;2023-03-15T13:10:50;3.40;;;1.50;;
12861;SDS011;6499;66.348;14.134;2023-03-15T13:13:30;2.10;;;1.60;;
12861;SDS011;6499;66.348;14.134;2023-03-15T13:16:07;2.60;;;1.47;;
12861;SDS011;6499;66.348;14.134;2023-03-15T13:18:41;2.93;;;1.57;;
12861;SDS011;6499;66.348;14.134;2023-03-15T13:21:11;2.77;;;1.40;;
12861;SDS011;6499;66.348;14.134;2023-03-15T13:23:41;3.60;;;1.60;;
12861;SDS011;6499;66.348;14.134;2023-03-15T13:28:52;3.67;;;1.60;;
12861;SDS011;6499;66.348;14.134;2023-03-15T13:31:23;3.23;;;1.20;;
12861;SDS011;6499;66.348;14.134;2023-03-15T13:33:50;1.97;;;1.17;;
12861;SDS011;6499;66.348;14.134;2023-03-15T13:36:21;3.40;;;1.30;;
12861;SDS011;6499;66.348;14.134;2023-03-15T13:38:50;1.30;;;1.07;;
12861;SDS011;6499;66.348;14.134;2023-03-15T13:41:18;3.07;;;1.20;;
12861;SDS011;6499;66.348;14.134;2023-03-15T13:43:45;1.70;;;1.30;;
12861;SDS011;6499;66.348;14.134;2023-03-15T13:46:13;4.43;;;1.30;;
12861;SDS011;6499;66.348;14.134;2023-03-15T13:48:41;2.37;;;1.40;;
12861;SDS011;6499;66.348;14.134;2023-03-15T13:51:10;3.50;;;1.23;;
12861;SDS011;6499;66.348;14.134;2023-03-15T13:53:38;1.77;;;1.03;;
12861;SDS011;6499;66.348;14.134;2023-03-15T13:56:05;1.63;;;1.20;;
12861;SDS011;6499;66.348;14.134;2023-03-15T13:58:32;3.60;;;1.10;;
12861;SDS011;6499;66.348;14.134;2023-03-15T14:00:59;3.23;;;1.57;;
12861;SDS011;6499;66.348;14.134;2023-03-15T14:03:27;1.97;;;1.10;;
12861;SDS011;6499;66.348;14.134;2023-03-15T14:05:55;4.20;;;1.40;;
12861;SDS011;6499;66.348;14.134;2023-03-15T14:08:23;2.70;;;1.70;;
12861;SDS011;6499;66.348;14.134;2023-03-15T14:10:58;2.77;;;1.47;;
12861;SDS011;6499;66.348;14.134;2023-03-15T14:13:26;3.27;;;1.40;;
12861;SDS011;6499;66.348;14.134;2023-03-15T14:15:56;1.83;;;1.10;;
12861;SDS011;6499;66.348;14.134;2023-03-15T14:18:24;4.10;;;1.30;;
12861;SDS011;6499;66.348;14.134;2023-03-15T14:20:52;2.70;;;1.40;;
12861;SDS011;6499;66.348;14.134;2023-03-15T14:23:22;4.23;;;1.40;;
12861;SDS011;6499;66.348;14.134;2023-03-15T14:25:50;3.47;;;1.47;;
12861;SDS011;6499;66.348;14.134;2023-03-15T14:28:17;1.97;;;1.10;;
12861;SDS011;6499;66.348;14.134;2023-03-15T14:30:49;1.93;;;1.27;;
12861;SDS011;6499;66.348;14.134;2023-03-15T14:33:21;4.03;;;1.53;;
12861;SDS011;6499;66.348;14.134;2023-03-15T14:35:51;3.53;;;1.23;;
12861;SDS011;6499;66.348;14.134;2023-03-15T14:38:20;2.80;;;1.60;;
12861;SDS011;6499;66.348;14.134;2023-03-15T14:40:48;4.57;;;1.50;;
12861;SDS011;6499;66.348;14.134;2023-03-15T14:43:16;2.90;;;1.90;;
12861;SDS011;6499;66.348;14.134;2023-03-15T14:45:43;2.20;;;1.33;;
12861;SDS011;6499;66.348;14.134;2023-03-15T14:48:12;3.90;;;1.63;;
12861;SDS011;6499;66.348;14.134;2023-03-15T14:50:45;4.23;;;1.53;;
12861;SDS011;6499;66.348;14.134;2023-03-15T14:53:13;3.87;;;1.60;;
12861;SDS011;6499;66.348;14.134;2023-03-15T14:55:41;3.63;;;1.73;;
12861;SDS011;6499;66.348;14.134;2023-03-15T14:58:10;2.53;;;1.40;;
12861;SDS011;6499;66.348;14.134;2023-03-15T15:00:37;2.80;;;1.70;;
12861;SDS011;6499;66.348;14.134;2023-03-15T15:03:05;2.13;;;1.57;;
12861;SDS011;6499;66.348;14.134;2023-03-15T15:05:33;2.13;;;1.20;;
12861;SDS011;6499;66.348;14.134;2023-03-15T15:08:01;5.20;;;1.77;;